createdAt,value
2019-04-10T00:00:51.109Z,0.97
2019-04-10T00:03:27.830Z,0.95
2019-04-10T00:11:00.750Z,0.87
2019-04-10T00:13:30.954Z,0.83
2019-04-10T00:16:01.283Z,0.82
2019-04-10T00:18:31.620Z,0.82
2019-04-10T00:23:50.017Z,0.77
2019-04-10T00:29:07.962Z,0.71
2019-04-10T00:31:38.137Z,0.70
2019-04-10T00:36:57.509Z,0.72
2019-04-10T00:39:28.707Z,0.73
2019-04-10T00:44:38.138Z,0.66
2019-04-10T00:47:07.786Z,0.60
2019-04-10T00:49:37.788Z,0.59
2019-04-10T00:52:26.196Z,0.57
2019-04-10T00:54:55.681Z,0.54
2019-04-10T00:57:25.441Z,0.11
2019-04-10T00:59:56.812Z,0.51
2019-04-10T01:02:27.082Z,0.48
2019-04-10T01:04:56.870Z,0.46
2019-04-10T01:10:40.342Z,0.02
2019-04-10T01:13:10.345Z,0.39
2019-04-10T01:15:39.722Z,0.33
2019-04-10T01:18:09.008Z,0.32
2019-04-10T01:20:38.339Z,0.27
2019-04-10T01:23:07.942Z,0.28
2019-04-10T01:25:37.540Z,0.25
2019-04-10T01:28:08.770Z,0.25
2019-04-10T01:30:40.308Z,0.23
2019-04-10T01:33:09.682Z,-0.36
2019-04-10T01:35:58.487Z,0.18
2019-04-10T01:41:23.860Z,-0.60
2019-04-10T01:43:53.269Z,0.13
2019-04-10T01:46:22.545Z,0.10
2019-04-10T01:48:51.821Z,0.09
2019-04-10T01:51:21.435Z,0.03
2019-04-10T01:53:50.772Z,0.05
2019-04-10T01:56:25.069Z,-0.15
2019-04-10T01:58:51.699Z,0.00
2019-04-10T02:04:00.651Z,-0.04
2019-04-10T02:06:31.572Z,-0.49
2019-04-10T02:09:40.157Z,-0.07
2019-04-10T02:12:28.500Z,-0.12
2019-04-10T02:14:57.828Z,-0.16
2019-04-10T02:17:27.281Z,-0.16
2019-04-10T02:19:56.851Z,-0.18
2019-04-10T02:22:47.686Z,-0.20
2019-04-10T02:25:57.073Z,-0.20
2019-04-10T02:28:57.617Z,-0.23
2019-04-10T02:31:28.564Z,-0.19
2019-04-10T02:36:48.996Z,-0.25
2019-04-10T02:39:27.422Z,-0.29
2019-04-10T02:41:52.337Z,-1.08
2019-04-10T02:44:22.909Z,-0.32
2019-04-10T02:46:54.864Z,-0.34
2019-04-10T02:49:24.722Z,-0.34
2019-04-10T02:51:55.043Z,-0.38
2019-04-10T02:54:27.029Z,-0.57
2019-04-10T02:56:56.953Z,-0.41
2019-04-10T02:59:29.166Z,-0.44
2019-04-10T03:02:00.347Z,-0.44
2019-04-10T03:04:31.098Z,-0.42
2019-04-10T03:07:02.063Z,-0.44
2019-04-10T03:09:47.369Z,-0.51
2019-04-10T03:12:03.728Z,-0.56
2019-04-10T03:14:34.650Z,-0.82
2019-04-10T03:17:24.043Z,-0.64
2019-04-10T03:19:53.932Z,-0.68
2019-04-10T03:22:24.964Z,-0.71
2019-04-10T03:24:55.578Z,-0.71
2019-04-10T03:33:45.413Z,-0.81
2019-04-10T03:36:11.798Z,-0.83
2019-04-10T03:38:54.552Z,-0.86
2019-04-10T03:41:12.361Z,-0.86
2019-04-10T03:43:41.753Z,-0.88
2019-04-10T03:46:13.055Z,-1.01
2019-04-10T03:51:16.901Z,-0.90
2019-04-10T03:53:46.644Z,-0.90
2019-04-10T03:56:18.011Z,-0.85
2019-04-10T03:58:49.534Z,-0.81
2019-04-10T04:01:19.697Z,-0.78
2019-04-10T04:03:49.170Z,-0.72
2019-04-10T04:06:19.489Z,-0.72
2019-04-10T04:09:11.642Z,-0.73
2019-04-10T04:11:39.987Z,-0.71
2019-04-10T04:14:10.612Z,-0.70
2019-04-10T04:16:39.922Z,-0.69
2019-04-10T04:19:10.140Z,-0.64
2019-04-10T04:21:40.321Z,-0.59
2019-04-10T04:24:09.810Z,-0.56
2019-04-10T04:27:18.930Z,-0.52
2019-04-10T04:29:49.898Z,-0.52
2019-04-10T04:32:21.741Z,-0.52
2019-04-10T04:34:52.171Z,-0.52
2019-04-10T04:37:40.816Z,-0.52
2019-04-10T04:40:30.033Z,-0.49
2019-04-10T04:43:03.680Z,-0.48
2019-04-10T04:45:34.053Z,-0.50
2019-04-10T04:48:03.349Z,-0.49
2019-04-10T04:50:34.075Z,-0.47
2019-04-10T04:53:04.531Z,-0.40
2019-04-10T04:58:45.621Z,-0.32
2019-04-10T05:01:14.937Z,-0.25
2019-04-10T05:03:44.377Z,-0.19
2019-04-10T05:06:13.821Z,-0.13
2019-04-10T05:08:43.175Z,-0.29
2019-04-10T05:11:12.608Z,-0.04
2019-04-10T05:13:44.088Z,0.03
2019-04-10T05:16:14.267Z,0.10
2019-04-10T05:18:45.676Z,0.16
2019-04-10T05:21:16.964Z,0.23
2019-04-10T05:23:47.054Z,0.29
2019-04-10T05:26:18.670Z,-0.09
2019-04-10T05:28:49.068Z,0.43
2019-04-10T05:31:19.314Z,0.42
2019-04-10T05:36:51.246Z,0.58
2019-04-10T05:40:01.530Z,0.63
2019-04-10T05:42:50.888Z,0.68
2019-04-10T05:45:21.226Z,0.72
2019-04-10T05:47:51.312Z,0.75
2019-04-10T05:50:21.548Z,0.79
2019-04-10T05:52:51.851Z,0.44
2019-04-10T05:55:22.546Z,0.82
2019-04-10T05:58:31.963Z,0.84
2019-04-10T06:04:16.890Z,0.91
2019-04-10T06:06:46.532Z,0.56
2019-04-10T06:09:51.936Z,0.99
2019-04-10T06:12:13.900Z,1.01
2019-04-10T06:15:12.833Z,1.02
2019-04-10T06:25:47.750Z,0.85
2019-04-10T06:43:53.208Z,0.83
2019-04-10T06:46:24.352Z,1.35
2019-04-10T06:49:33.091Z,1.38
2019-04-10T06:52:14.764Z,1.45
2019-04-10T06:54:55.977Z,1.56
2019-04-10T06:57:26.971Z,1.68
2019-04-10T06:59:59.357Z,1.66
2019-04-10T07:08:19.351Z,1.80
2019-04-10T07:11:09.091Z,1.72
2019-04-10T07:13:57.148Z,1.77
2019-04-10T07:16:35.395Z,1.82
2019-04-10T07:19:08.552Z,1.53
2019-04-10T07:25:12.807Z,2.20
2019-04-10T07:28:02.751Z,2.24
2019-04-10T07:30:48.053Z,1.95
2019-04-10T07:33:30.909Z,2.41
2019-04-10T07:36:05.596Z,2.41
2019-04-10T07:38:55.661Z,2.45
2019-04-10T07:44:31.244Z,2.44
2019-04-10T07:47:11.805Z,2.51
2019-04-10T07:49:52.976Z,2.69
2019-04-10T07:52:35.670Z,2.70
2019-04-10T07:58:11.025Z,2.74
2019-04-10T08:03:31.517Z,2.90
2019-04-10T08:06:01.075Z,3.03
2019-04-10T08:08:30.524Z,3.05
2019-04-10T08:11:01.598Z,3.09
2019-04-10T08:13:30.943Z,3.10
2019-04-10T08:16:00.992Z,3.09
2019-04-10T08:18:31.634Z,3.20
2019-04-10T08:21:02.912Z,3.47
2019-04-10T08:23:52.937Z,3.53
2019-04-10T08:26:43.036Z,3.63
2019-04-10T08:29:18.239Z,3.54
2019-04-10T08:32:26.340Z,3.47
2019-04-10T08:34:58.373Z,3.61
2019-04-10T08:37:49.123Z,3.60
2019-04-10T08:43:20.567Z,3.75
2019-04-10T08:45:52.302Z,3.34
2019-04-10T08:48:21.963Z,3.77
2019-04-10T08:51:04.869Z,3.73
2019-04-10T08:53:55.637Z,3.71
2019-04-10T08:56:36.491Z,3.69
2019-04-10T08:59:30.019Z,3.74
2019-04-10T09:02:00.458Z,3.65
2019-04-10T09:04:31.175Z,3.71
2019-04-10T09:10:05.933Z,3.57
2019-04-10T09:13:14.952Z,3.60
2019-04-10T09:15:56.298Z,3.56
2019-04-10T09:18:37.238Z,3.42
2019-04-10T09:21:45.875Z,3.50
2019-04-10T09:24:17.891Z,3.56
2019-04-10T09:26:48.764Z,3.53
2019-04-10T09:29:18.212Z,3.46
2019-04-10T09:31:50.246Z,3.56
2019-04-10T09:34:39.886Z,3.61
2019-04-10T09:37:10.228Z,3.48
2019-04-10T09:39:43.408Z,3.55
2019-04-10T09:42:15.547Z,3.58
2019-04-10T09:44:48.922Z,3.31
2019-04-10T09:47:38.032Z,3.18
2019-04-10T09:50:27.673Z,3.11
2019-04-10T09:52:58.368Z,3.09
2019-04-10T09:55:29.766Z,2.84
2019-04-10T09:58:00.251Z,2.88
2019-04-10T10:05:50.992Z,2.80
2019-04-10T10:11:27.152Z,2.89
2019-04-10T10:17:17.998Z,3.09
2019-04-10T10:22:39.130Z,3.42
2019-04-10T10:25:32.817Z,3.59
2019-04-10T10:30:51.707Z,3.92
2019-04-10T10:33:41.539Z,4.24
2019-04-10T10:36:11.855Z,4.16
2019-04-10T10:38:43.270Z,3.96
2019-04-10T10:41:13.336Z,3.85
2019-04-10T10:43:42.740Z,3.79
2019-04-10T10:46:31.550Z,3.74
2019-04-10T10:49:12.563Z,3.65
2019-04-10T10:51:42.897Z,3.66
2019-04-10T11:00:41.336Z,3.57
2019-04-10T11:03:22.553Z,3.61
2019-04-10T11:05:52.890Z,3.70
2019-04-10T11:08:41.758Z,3.65
2019-04-10T11:11:30.806Z,3.72
2019-04-10T11:14:13.248Z,3.75
2019-04-10T11:16:43.112Z,3.77
2019-04-10T11:22:31.587Z,3.29
2019-04-10T11:25:22.153Z,3.81
2019-04-10T11:28:05.837Z,3.79
2019-04-10T11:30:36.217Z,3.63
2019-04-10T11:33:14.936Z,3.65
2019-04-10T11:35:45.879Z,3.57
2019-04-10T11:41:21.109Z,3.68
2019-04-10T11:44:02.723Z,3.70
2019-04-10T11:46:43.889Z,3.73
2019-04-10T11:49:15.449Z,3.74
2019-04-10T11:51:53.543Z,3.74
2019-04-10T11:54:26.619Z,3.83
2019-04-10T11:56:58.337Z,3.74
2019-04-10T12:02:14.423Z,3.92
2019-04-10T12:05:11.009Z,3.91
2019-04-10T12:08:01.337Z,3.79
2019-04-10T12:13:43.772Z,3.98
2019-04-10T12:16:13.254Z,4.07
2019-04-10T12:19:24.044Z,4.14
2019-04-10T12:21:55.843Z,4.32
2019-04-10T12:24:48.477Z,4.49
2019-04-10T12:27:29.522Z,4.50
2019-04-10T12:30:45.783Z,4.22
2019-04-10T12:39:24.623Z,5.23
2019-04-10T12:41:55.642Z,5.28
2019-04-10T12:47:21.770Z,5.30
2019-04-10T12:50:30.928Z,5.17
2019-04-10T12:53:13.830Z,5.08
2019-04-10T12:55:57.786Z,5.13
2019-04-10T12:58:39.559Z,4.96
2019-04-10T13:01:21.042Z,4.78
2019-04-10T13:10:34.122Z,4.77
2019-04-10T13:13:22.453Z,4.77
2019-04-10T13:15:54.209Z,4.77
2019-04-10T13:18:36.393Z,4.88
2019-04-10T13:21:06.341Z,4.93
2019-04-10T13:23:37.014Z,4.91
2019-04-10T13:26:15.604Z,4.91
2019-04-10T13:28:46.349Z,4.90
2019-04-10T13:31:17.573Z,4.99
2019-04-10T13:33:51.071Z,5.05
2019-04-10T13:36:44.092Z,4.99
2019-04-10T13:39:17.755Z,4.97
2019-04-10T13:51:15.034Z,5.00
2019-04-10T13:53:52.306Z,4.97
2019-04-10T13:56:23.237Z,5.00
2019-04-10T13:59:01.888Z,5.08
2019-04-10T14:04:33.339Z,5.18
2019-04-10T14:12:35.280Z,5.08
2019-04-10T14:15:46.264Z,5.17
2019-04-10T14:20:59.670Z,5.31
2019-04-10T14:34:47.620Z,5.26
2019-04-10T14:37:17.050Z,4.89
2019-04-10T14:39:47.643Z,5.50
2019-04-10T14:42:18.297Z,5.50
2019-04-10T14:53:01.312Z,5.13
2019-04-10T14:55:31.456Z,5.63
2019-04-10T14:58:01.404Z,5.56
2019-04-10T15:00:49.816Z,5.09
2019-04-10T15:06:25.684Z,5.43
2019-04-10T15:08:56.016Z,5.70
2019-04-10T15:11:25.350Z,5.84
2019-04-10T15:13:55.481Z,5.80
2019-04-10T15:16:52.921Z,5.89
2019-04-10T15:25:15.134Z,5.82
2019-04-10T15:27:46.894Z,5.89
2019-04-10T15:30:57.129Z,6.01
2019-04-10T15:36:17.928Z,5.77
2019-04-10T15:38:48.660Z,5.65
2019-04-10T15:41:18.974Z,5.60
2019-04-10T15:43:49.794Z,5.61
2019-04-10T15:46:19.228Z,5.47
2019-04-10T15:48:48.871Z,5.69
2019-04-10T15:51:18.374Z,5.68
2019-04-10T15:53:47.736Z,5.56
2019-04-10T15:56:18.887Z,5.48
2019-04-10T15:58:48.404Z,5.50
2019-04-10T16:01:19.775Z,5.38
2019-04-10T16:04:29.612Z,5.31
2019-04-10T16:07:00.131Z,5.30
2019-04-10T16:09:52.018Z,5.30
2019-04-10T16:15:22.348Z,5.29
2019-04-10T16:20:47.727Z,5.33
2019-04-10T16:26:32.175Z,5.37
2019-04-10T16:29:02.088Z,5.39
2019-04-10T16:31:32.978Z,4.96
2019-04-10T16:34:02.535Z,5.37
2019-04-10T16:36:33.205Z,5.42
2019-04-10T16:44:35.268Z,5.28
2019-04-10T16:47:05.775Z,5.16
2019-04-10T16:49:47.398Z,5.10
2019-04-10T16:52:16.848Z,5.07
2019-04-10T16:54:47.673Z,5.07
2019-04-10T16:57:29.043Z,5.01
2019-04-10T16:59:59.216Z,4.95
2019-04-10T17:02:29.600Z,4.89
2019-04-10T17:04:58.896Z,4.97
2019-04-10T17:07:36.051Z,4.91
2019-04-10T17:10:45.503Z,4.95
2019-04-10T17:13:14.811Z,4.92
2019-04-10T17:15:44.481Z,4.85
2019-04-10T17:18:32.918Z,4.76
2019-04-10T17:21:02.649Z,4.73
2019-04-10T17:23:32.423Z,4.68
2019-04-10T17:26:02.439Z,4.69
2019-04-10T17:28:32.340Z,4.64
2019-04-10T17:31:04.358Z,4.66
2019-04-10T17:33:34.175Z,4.65
2019-04-10T17:38:42.808Z,4.54
2019-04-10T17:41:12.541Z,4.48
2019-04-10T17:43:43.362Z,4.37
2019-04-10T17:46:13.254Z,4.35
2019-04-10T17:48:44.053Z,4.30
2019-04-10T17:56:50.578Z,3.44
2019-04-10T17:59:20.626Z,4.11
2019-04-10T18:01:50.025Z,4.00
2019-04-10T18:04:20.057Z,3.88
2019-04-10T18:06:50.708Z,3.85
2019-04-10T18:14:49.318Z,3.60
2019-04-10T18:17:18.979Z,3.53
2019-04-10T18:19:48.448Z,3.49
2019-04-10T18:22:36.845Z,3.44
2019-04-10T18:28:13.764Z,3.26
2019-04-10T18:30:48.075Z,3.16
2019-04-10T18:33:18.249Z,3.11
2019-04-10T18:35:49.151Z,3.04
2019-04-10T18:38:19.550Z,2.98
2019-04-10T18:40:55.706Z,2.90
2019-04-10T18:46:22.452Z,2.70
2019-04-10T18:48:52.878Z,2.60
2019-04-10T18:52:01.549Z,2.55
2019-04-10T18:54:31.922Z,2.47
2019-04-10T18:57:22.023Z,2.40
2019-04-10T19:00:12.220Z,2.36
2019-04-10T19:03:01.308Z,2.26
2019-04-10T19:08:24.011Z,2.12
2019-04-10T19:11:09.434Z,2.04
2019-04-10T19:13:26.627Z,1.97
2019-04-10T19:15:57.281Z,1.92
2019-04-10T19:18:28.177Z,1.94
2019-04-10T19:21:00.218Z,1.92
2019-04-10T19:26:31.897Z,1.81
2019-04-10T19:29:01.249Z,1.75
2019-04-10T19:31:33.345Z,1.70
2019-04-10T19:34:41.336Z,1.63
2019-04-10T19:37:12.356Z,1.57
2019-04-10T19:39:44.542Z,1.48
2019-04-10T19:42:15.346Z,1.39
2019-04-10T19:44:45.622Z,1.28
2019-04-10T19:49:53.152Z,1.15
2019-04-10T19:52:22.570Z,1.09
2019-04-10T19:55:11.507Z,1.03
2019-04-10T19:57:42.000Z,0.96
2019-04-10T20:03:13.226Z,0.85
2019-04-10T20:05:43.496Z,0.79
2019-04-10T20:08:13.241Z,0.74
2019-04-10T20:10:43.794Z,0.67
2019-04-10T20:13:13.090Z,0.61
2019-04-10T20:15:42.643Z,0.55
2019-04-10T20:18:14.647Z,0.49
2019-04-10T20:20:45.666Z,0.42
2019-04-10T20:23:16.004Z,0.27
2019-04-10T20:25:46.849Z,0.26
2019-04-10T20:28:16.353Z,0.18
2019-04-10T20:30:47.131Z,0.13
2019-04-10T20:33:16.684Z,0.08
2019-04-10T20:35:48.715Z,0.03
2019-04-10T20:38:19.626Z,-0.03
2019-04-10T20:40:49.829Z,-0.07
2019-04-10T20:43:20.653Z,-0.10
2019-04-10T20:45:49.899Z,-0.14
2019-04-10T20:48:20.146Z,-0.18
2019-04-10T20:50:50.309Z,-0.23
2019-04-10T20:53:19.979Z,-0.28
2019-04-10T20:55:51.454Z,-0.32
2019-04-10T20:58:22.027Z,-0.38
2019-04-10T21:00:52.791Z,-0.42
2019-04-10T21:03:23.119Z,-0.47
2019-04-10T21:05:53.107Z,-0.50
2019-04-10T21:08:22.402Z,-0.52
2019-04-10T21:10:51.728Z,-0.59
2019-04-10T21:13:22.055Z,-0.64
2019-04-10T21:15:52.990Z,-0.68
2019-04-10T21:18:23.701Z,-0.73
2019-04-10T21:20:54.074Z,-0.79
2019-04-10T21:23:23.829Z,-0.83
2019-04-10T21:25:55.367Z,-0.89
2019-04-10T21:28:25.970Z,-0.93
2019-04-10T21:31:15.932Z,-0.96
2019-04-10T21:34:05.595Z,-1.00
2019-04-10T21:39:17.028Z,-1.09
2019-04-10T21:41:48.730Z,-1.14
2019-04-10T21:44:18.582Z,-1.19
2019-04-10T21:46:48.622Z,-1.25
2019-04-10T21:49:19.837Z,-1.29
2019-04-10T21:51:49.900Z,-1.33
2019-04-10T21:54:19.193Z,-1.37
2019-04-10T21:57:07.661Z,-1.40
2019-04-10T21:59:36.898Z,-1.44
2019-04-10T22:02:06.833Z,-1.50
2019-04-10T22:04:37.397Z,-1.53
2019-04-10T22:07:25.814Z,-1.56
2019-04-10T22:10:13.936Z,-1.59
2019-04-10T22:12:47.082Z,-1.62
2019-04-10T22:15:33.256Z,-1.64
2019-04-10T22:18:03.058Z,-1.69
2019-04-10T22:20:33.865Z,-1.72
2019-04-10T22:23:04.673Z,-1.76
2019-04-10T22:25:33.975Z,-1.79
2019-04-10T22:33:33.434Z,-2.27
2019-04-10T22:38:51.853Z,-1.95
2019-04-10T22:41:28.530Z,-2.05
2019-04-10T22:43:53.116Z,-2.02
2019-04-10T22:47:02.906Z,-2.05
2019-04-10T22:52:20.973Z,-2.11
2019-04-10T22:54:50.907Z,-2.12
2019-04-10T22:57:21.311Z,-2.14
2019-04-10T22:59:51.140Z,-2.19
2019-04-10T23:02:21.631Z,-2.22
2019-04-10T23:04:51.308Z,-2.26
2019-04-10T23:07:22.036Z,-2.30
2019-04-10T23:09:51.253Z,-2.34
2019-04-10T23:12:20.534Z,-2.37
2019-04-10T23:15:29.270Z,-2.40
2019-04-10T23:17:59.276Z,-2.41
2019-04-10T23:20:30.020Z,-2.43
2019-04-10T23:23:00.998Z,-2.51
2019-04-10T23:25:34.340Z,-2.48
2019-04-10T23:28:04.857Z,-2.52
2019-04-10T23:30:35.102Z,-2.55
2019-04-10T23:33:05.964Z,-2.57
2019-04-10T23:35:36.146Z,-2.58
2019-04-10T23:38:05.433Z,-2.58
2019-04-10T23:40:34.863Z,-2.60
2019-04-10T23:43:11.213Z,-2.62
2019-04-10T23:45:35.139Z,-2.65
2019-04-10T23:48:04.551Z,-2.67
2019-04-10T23:50:36.425Z,-2.66
2019-04-10T23:53:06.635Z,-2.68
2019-04-10T23:55:37.868Z,-2.70
2019-04-10T23:58:09.599Z,-2.71
